Tucson International Airport
KTUS : now visible

Airfield :











YOU CAN JOIN US ON...

 
LOGIN :

Register | Disclaimer

   EN    FR    IT 

 









Legend :    VFR   Marginal VFR   IFR   Intensive IFR   Very Intensive IFR
Visi :
Ceiling :
>= 8 km
>= 3000ft
5 to 8 km
1000 to 3000 ft
1500m to 5 km
500 to 1000 ft
800 to 1500m
200 to 500 ft
< 800m
< 200 ft
Symbols :   Thunderstorms  Fog  Heavy snow  Heavy precipitations  Wind > 20 kt






- Airport Elevation : 2643 ft
- IATA code : TUS


KTUS - Tucson International

CURRENT METAR :
  • 181053Z 17006KT 10SM CLR 04/02 A3020 RMK AO2 SLP210 T00440022

EXPIRED METARs :
  • 180953Z 16006KT 10SM CLR 05/03 A3020 RMK AO2 SLP211 T00500028
  • 180853Z 15005KT 10SM CLR 05/03 A3021 RMK AO2 SLP214 T00500028 58001

TAF KTUS
Valid from the 18 at 06:00 until the 19 at 06:00 UTC


180528Z 1806/1906 25005KT P6SM SCT250
FM180700 14007KT P6SM SKC
FM182000 02005KT P6SM SCT250



MET'MAP, your aeronautical weather chart ! - Copyright ORBIFLY December 2007 - Disclaimer

ORBIFLY MET'MAP TEAM :

Programming & Development : Alexandra Zaïnal
Concept & original design : Baudouin d'Aumeries
Assistance for programming : Marc-Olivier Méhu
Technical & hardware support : Manuel Goepfert

Contact : metmap@orbifly.com




SOURCES & CREDITS :

   NOAA       Earth
Advisory